Time;durP1;ratioP1;P1;durP2;ratioP2;P2;SDS_P1;SDS_P2;PMS_P1;PMS_P2;Temp;Humidity;BMP_temperature;BMP_pressure;BME280_temperature;BME280_humidity;BME280_pressure;Samples;Min_cycle;Max_cycle;Signal;HPM_P1;HPM_P2
2022/02/28 00:02:06;;;;;;;;;;;;;;;29.51;58.06;101163.72;4966987;28;68690;-38
2022/02/28 00:04:36;;;;;;;;;;;;;;;29.57;58.13;101170.19;4977509;28;66598;-38
2022/02/28 00:07:06;;;;;;;;;;;;;;;29.55;59.26;101174.94;4977471;28;69773;-38
2022/02/28 00:09:36;;;;;;;;;;;;;;;29.56;60.99;101176.59;4977394;28;66896;-38
2022/02/28 00:12:06;;;;;;;;;;;;;;;29.58;60.66;101169.13;4977674;28;70011;-37
2022/02/28 00:14:36;;;;;;;;;;;;;;;29.63;61.57;101172.09;4978347;28;67249;-38
2022/02/28 00:17:06;;;;;;;;;;;;;;;29.67;62.16;101178.75;4962608;28;70031;-37
2022/02/28 00:19:36;;;;;;;;;;;;;;;29.62;63.30;101175.81;4976461;28;65235;-38
2022/02/28 00:22:06;;;;;;;;;;;;;;;29.64;62.89;101179.16;4954442;28;69504;-38
2022/02/28 00:24:36;;;;;;;;;;;;;;;29.56;61.81;101173.91;4956889;28;66378;-38
2022/02/28 00:27:06;;;;;;;;;;;;;;;29.60;61.09;101180.56;4970798;28;69501;-38
2022/02/28 00:29:35;;;;;;;;;;;;;;;29.65;60.43;101180.84;4962253;28;66226;-39
2022/02/28 00:32:06;;;;;;;;;;;;;;;29.72;61.41;101187.06;4976285;28;69964;-39
2022/02/28 00:34:36;;;;;;;;;;;;;;;29.76;62.05;101188.34;4987478;28;65799;-39
2022/02/28 00:37:05;;;;;;;;;;;;;;;29.82;62.26;101175.88;4994711;28;69951;-39
2022/02/28 00:39:36;;;;;;;;;;;;;;;29.88;61.38;101185.84;4972796;28;66213;-39
2022/02/28 00:42:06;;;;;;;;;;;;;;;29.93;61.57;101187.94;4972115;28;69418;-39
2022/02/28 00:44:40;;;;;;;;;;;;;;;29.96;61.41;101188.34;4960646;28;65315;-41
2022/02/28 00:47:10;;;;;;;;;;;;;;;30.01;61.08;101190.44;4972979;28;70116;-39
2022/02/28 00:49:40;;;;;;;;;;;;;;;30.03;61.01;101185.66;4974411;28;65497;-39
2022/02/28 00:52:10;;;;;;;;;;;;;;;30.05;60.65;101187.09;4975975;28;70266;-39
2022/02/28 00:54:41;;;;;;;;;;;;;;;30.08;60.33;101185.88;4970131;27;66615;-39
2022/02/28 00:57:12;;;;;;;;;;;;;;;30.11;60.00;101188.16;4985438;28;70424;-39
2022/02/28 00:59:43;;;;;;;;;;;;;;;30.13;59.79;101194.19;4975178;28;65357;-39
2022/02/28 01:02:13;;;;;;;;;;;;;;;30.15;59.66;101196.69;4974283;28;69303;-39
2022/02/28 01:04:45;;;;;;;;;;;;;;;30.18;59.28;101197.13;4977892;28;66999;-39
2022/02/28 01:07:15;;;;;;;;;;;;;;;30.19;58.72;101206.88;4975779;28;69435;-39
2022/02/28 01:09:47;;;;;;;;;;;;;;;30.22;58.97;101213.78;4975346;28;66508;-40
2022/02/28 01:12:16;;;;;;;;;;;;;;;30.24;58.56;101206.31;4996958;28;69634;-43
2022/02/28 01:14:48;;;;;;;;;;;;;;;30.25;58.36;101211.50;4995899;28;66474;-40
2022/02/28 01:17:18;;;;;;;;;;;;;;;30.27;57.94;101212.13;4984420;27;70380;-41
2022/02/28 01:19:50;;;;;;;;;;;;;;;30.30;58.25;101215.47;4996419;27;66336;-40
2022/02/28 01:22:20;;;;;;;;;;;;;;;30.31;57.53;101217.13;4996648;27;69919;-40
2022/02/28 01:24:50;;;;;;;;;;;;;;;30.33;57.36;101217.75;4995922;28;66245;-41
2022/02/28 01:27:22;;;;;;;;;;;;;;;30.34;57.44;101216.69;4992507;27;69891;-40
2022/02/28 01:29:52;;;;;;;;;;;;;;;30.36;57.10;101226.28;4995160;28;65966;-39
2022/02/28 01:32:22;;;;;;;;;;;;;;;30.36;57.15;101220.84;4990978;28;69770;-39
2022/02/28 01:34:54;;;;;;;;;;;;;;;30.38;56.88;101226.91;4995817;28;66882;-39
2022/02/28 01:37:24;;;;;;;;;;;;;;;30.40;57.25;101226.72;4992105;27;69774;-40
2022/02/28 01:39:55;;;;;;;;;;;;;;;30.42;57.13;101228.16;4979966;27;65347;-40
2022/02/28 01:42:25;;;;;;;;;;;;;;;30.44;56.38;101227.94;4991270;28;69199;-39
2022/02/28 01:44:56;;;;;;;;;;;;;;;30.46;56.48;101236.69;4977417;27;66186;-40
2022/02/28 01:47:26;;;;;;;;;;;;;;;30.47;56.59;101238.34;4993193;27;69981;-40
2022/02/28 01:49:58;;;;;;;;;;;;;;;30.48;56.10;101229.22;4988075;28;66788;-39
2022/02/28 01:52:28;;;;;;;;;;;;;;;30.49;56.45;101237.09;4992485;27;70408;-40
2022/02/28 01:54:58;;;;;;;;;;;;;;;30.53;56.42;101251.03;4996318;27;65664;-39
2022/02/28 01:57:29;;;;;;;;;;;;;;;30.54;56.21;101250.03;4977477;28;69838;-39
2022/02/28 02:00:03;;;;;;;;;;;;;;;30.57;55.98;101254.19;4975944;28;66646;-40
2022/02/28 02:02:41;;;;;;;;;;;;;;;30.58;55.55;101245.84;4981265;28;69994;-39
2022/02/28 02:05:11;;;;;;;;;;;;;;;30.60;55.60;101253.75;4964547;28;66922;-39
2022/02/28 02:07:41;;;;;;;;;;;;;;;30.62;55.65;101251.66;4961777;28;69435;-39
2022/02/28 02:10:11;;;;;;;;;;;;;;;30.63;55.59;101254.16;4979154;28;66848;-39
2022/02/28 02:12:42;;;;;;;;;;;;;;;30.66;55.01;101259.16;4979625;27;70541;-39
2022/02/28 02:15:15;;;;;;;;;;;;;;;30.66;54.92;101253.75;4964084;28;66967;-39
2022/02/28 02:17:46;;;;;;;;;;;;;;;30.70;55.00;101259.56;4978811;28;70426;-41
2022/02/28 02:20:22;;;;;;;;;;;;;;;30.71;55.15;101262.06;4962212;28;66513;-39
2022/02/28 02:22:56;;;;;;;;;;;;;;;30.73;55.11;101260.00;4977620;28;70258;-40
2022/02/28 02:25:27;;;;;;;;;;;;;;;30.77;54.79;101262.28;4970627;28;66179;-39
2022/02/28 02:27:57;;;;;;;;;;;;;;;30.77;54.90;101260.41;4969337;28;70046;-39
2022/02/28 02:30:29;;;;;;;;;;;;;;;30.80;54.70;101260.00;4961074;28;65522;-40
2022/02/28 02:33:00;;;;;;;;;;;;;;;30.81;54.49;101258.13;4960812;28;69156;-40
2022/02/28 02:35:31;;;;;;;;;;;;;;;30.83;53.87;101258.75;4961213;28;66500;-41
2022/02/28 02:38:02;;;;;;;;;;;;;;;30.85;53.94;101262.09;4968452;28;70705;-39
2022/02/28 02:40:31;;;;;;;;;;;;;;;30.87;53.81;101260.00;4969008;28;64888;-39
2022/02/28 02:43:01;;;;;;;;;;;;;;;30.90;53.72;101259.59;4988285;28;69948;-39
2022/02/28 02:45:31;;;;;;;;;;;;;;;30.91;53.36;101255.81;4980668;28;65613;-39
2022/02/28 02:48:14;;;;;;;;;;;;;;;30.94;53.51;101258.09;4987062;27;70127;-39
2022/02/28 02:50:47;;;;;;;;;;;;;;;30.95;53.39;101251.63;4975986;28;66547;-39
2022/02/28 02:53:17;;;;;;;;;;;;;;;30.98;53.64;101253.09;4976916;28;70687;-39
2022/02/28 02:55:48;;;;;;;;;;;;;;;31.01;53.02;101255.38;4977170;28;66374;-39
2022/02/28 02:58:19;;;;;;;;;;;;;;;31.02;53.50;101252.47;5005568;28;69440;-39
2022/02/28 03:00:53;;;;;;;;;;;;;;;31.05;53.00;101256.63;5004145;27;66779;-39
2022/02/28 03:03:31;;;;;;;;;;;;;;;31.06;53.25;101252.88;4964344;28;70387;-39
2022/02/28 03:06:02;;;;;;;;;;;;;;;31.09;52.67;101264.13;4959745;28;65422;-40
2022/02/28 03:08:35;;;;;;;;;;;;;;;31.11;52.63;101264.72;4970881;28;70645;-40
2022/02/28 03:11:05;;;;;;;;;;;;;;;31.13;52.93;101265.34;4996697;27;65088;-40
2022/02/28 03:13:36;;;;;;;;;;;;;;;31.16;52.81;101264.09;4980186;27;69924;-39
2022/02/28 03:16:06;;;;;;;;;;;;;;;31.19;52.28;101262.84;4978695;28;65875;-40
2022/02/28 03:18:39;;;;;;;;;;;;;;;31.21;52.41;101252.63;4991886;28;70416;-39
2022/02/28 03:21:09;;;;;;;;;;;;;;;31.22;52.38;101243.44;4993927;28;65593;-39
2022/02/28 03:23:39;;;;;;;;;;;;;;;31.25;51.76;101241.13;4991290;28;70476;-40
2022/02/28 03:26:09;;;;;;;;;;;;;;;31.27;52.19;101244.47;4987717;28;65549;-40
2022/02/28 03:28:41;;;;;;;;;;;;;;;31.29;51.75;101246.97;4989196;28;69875;-39
2022/02/28 03:31:11;;;;;;;;;;;;;;;31.32;51.61;101246.53;4993532;28;66001;-40
2022/02/28 03:33:42;;;;;;;;;;;;;;;31.34;51.81;101239.00;4988260;28;70182;-40
2022/02/28 03:36:14;;;;;;;;;;;;;;;31.35;51.36;101240.69;4977461;28;66297;-40
2022/02/28 03:38:47;;;;;;;;;;;;;;;31.37;51.35;101227.75;4993946;27;69766;-40
2022/02/28 03:41:17;;;;;;;;;;;;;;;31.40;51.33;101227.34;4968449;28;66554;-39
2022/02/28 03:43:47;;;;;;;;;;;;;;;31.41;51.50;101223.59;4991341;27;70012;-40
2022/02/28 03:46:22;;;;;;;;;;;;;;;31.44;51.38;101222.31;4984564;28;66066;-41
2022/02/28 03:49:15;;;;;;;;;;;;;;;31.46;50.83;101207.50;4993675;27;70284;-40
2022/02/28 03:51:54;;;;;;;;;;;;;;;31.49;50.75;101212.50;4994891;27;66972;-40
2022/02/28 03:54:37;;;;;;;;;;;;;;;31.51;50.86;101196.84;4990491;27;70104;-40
2022/02/28 03:57:07;;;;;;;;;;;;;;;31.52;50.55;101198.50;4995193;27;66403;-40
2022/02/28 03:59:38;;;;;;;;;;;;;;;31.56;50.56;101198.88;5044217;28;70074;-39
2022/02/28 04:02:08;;;;;;;;;;;;;;;31.57;50.87;101197.84;4976534;28;66213;-39
2022/02/28 04:04:44;;;;;;;;;;;;;;;31.59;50.59;101176.75;4978047;28;69510;-41
2022/02/28 04:07:15;;;;;;;;;;;;;;;31.60;50.37;101167.59;4995413;27;65567;-40
2022/02/28 04:09:46;;;;;;;;;;;;;;;31.62;50.61;101173.59;4966567;28;69366;-39
2022/02/28 04:12:16;;;;;;;;;;;;;;;31.63;50.27;101166.31;4978423;28;66649;-40
2022/02/28 04:14:46;;;;;;;;;;;;;;;31.66;50.42;101168.59;4958947;28;69001;-40
2022/02/28 04:17:17;;;;;;;;;;;;;;;31.67;50.01;101159.41;4977235;28;65490;-39
2022/02/28 04:19:49;;;;;;;;;;;;;;;31.69;50.66;101154.59;4979309;27;70412;-40
2022/02/28 04:22:19;;;;;;;;;;;;;;;31.70;50.68;101150.81;4975026;28;65618;-41
2022/02/28 04:24:50;;;;;;;;;;;;;;;31.71;50.06;101136.22;4977748;28;69325;-40
2022/02/28 04:27:20;;;;;;;;;;;;;;;31.72;50.27;101133.28;4947789;28;65510;-39
2022/02/28 04:29:51;;;;;;;;;;;;;;;31.73;49.97;101117.84;4974513;28;70294;-41
2022/02/28 04:32:22;;;;;;;;;;;;;;;31.75;50.06;101119.28;4980559;28;67725;-41
2022/02/28 04:34:58;;;;;;;;;;;;;;;31.76;50.11;101112.81;4950693;28;69130;-39
2022/02/28 04:37:30;;;;;;;;;;;;;;;31.77;50.31;101110.94;4990244;27;66290;-40
2022/02/28 04:40:00;;;;;;;;;;;;;;;31.78;50.34;101071.91;4985210;28;69463;-40
2022/02/28 04:42:33;;;;;;;;;;;;;;;31.79;50.29;101100.69;4989361;28;66513;-39
2022/02/28 04:45:04;;;;;;;;;;;;;;;31.80;50.40;101096.94;4993515;27;70235;-42
2022/02/28 04:47:34;;;;;;;;;;;;;;;31.81;50.00;101082.28;4984630;28;65827;-39
2022/02/28 04:50:23;;;;;;;;;;;;;;;31.85;50.22;101077.28;4997041;27;70038;-39
2022/02/28 04:52:53;;;;;;;;;;;;;;;31.86;49.72;101074.34;4986289;28;65913;-41
2022/02/28 04:55:24;;;;;;;;;;;;;;;31.88;50.03;101057.84;4994820;27;70235;-39
2022/02/28 04:57:55;;;;;;;;;;;;;;;31.89;49.88;101063.03;4992713;27;65495;-39
2022/02/28 05:00:45;;;;;;;;;;;;;;;31.91;49.70;101060.09;4970995;28;70092;-39
2022/02/28 05:03:16;;;;;;;;;;;;;;;31.93;49.92;101056.16;4978366;28;66583;-39
2022/02/28 05:05:48;;;;;;;;;;;;;;;31.95;49.86;101051.31;4979474;28;69476;-39
2022/02/28 05:08:18;;;;;;;;;;;;;;;31.96;49.63;101047.56;4993197;28;66422;-39
2022/02/28 05:10:48;;;;;;;;;;;;;;;31.98;49.64;101044.59;4979018;28;69836;-39
2022/02/28 05:13:19;;;;;;;;;;;;;;;31.98;49.85;101040.03;4979838;28;66969;-39
2022/02/28 05:15:48;;;;;;;;;;;;;;;32.00;49.46;101035.19;4977851;28;69209;-39
2022/02/28 05:18:19;;;;;;;;;;;;;;;32.02;49.68;101034.97;4979026;28;66764;-40
2022/02/28 05:20:49;;;;;;;;;;;;;;;32.04;49.68;101028.28;4978842;28;69333;-40
2022/02/28 05:23:18;;;;;;;;;;;;;;;32.05;49.60;101008.22;4977190;28;66085;-40
2022/02/28 05:25:50;;;;;;;;;;;;;;;32.07;50.09;101005.28;4978137;28;69256;-40
2022/02/28 05:28:40;;;;;;;;;;;;;;;32.11;49.57;101005.66;4947579;28;66741;-40
2022/02/28 05:31:12;;;;;;;;;;;;;;;32.12;49.82;100996.47;4980018;28;69422;-40
2022/02/28 05:33:44;;;;;;;;;;;;;;;32.15;49.57;100993.28;4966014;28;66104;-39
2022/02/28 05:36:14;;;;;;;;;;;;;;;32.17;49.74;100977.63;4979412;28;70880;-40
2022/02/28 05:38:51;;;;;;;;;;;;;;;32.18;49.31;100974.69;4978726;28;66417;-41
2022/02/28 05:41:21;;;;;;;;;;;;;;;32.19;49.91;100970.09;4967033;28;70389;-40
2022/02/28 05:43:59;;;;;;;;;;;;;;;32.20;49.55;100969.84;4961526;28;65928;-40
2022/02/28 05:46:29;;;;;;;;;;;;;;;32.21;49.83;100951.69;4976467;28;70667;-40
2022/02/28 05:49:24;;;;;;;;;;;;;;;32.23;49.50;100954.97;4965534;28;66577;-40
2022/02/28 05:51:54;;;;;;;;;;;;;;;32.25;49.74;100947.44;4980762;27;70288;-40
2022/02/28 05:54:24;;;;;;;;;;;;;;;32.28;49.57;100952.41;4979285;27;67914;-39
2022/02/28 05:56:54;;;;;;;;;;;;;;;32.30;49.32;100936.75;4978524;28;70437;-39
2022/02/28 05:59:23;;;;;;;;;;;;;;;32.31;49.42;100919.38;4979699;28;66598;-39
2022/02/28 06:01:53;;;;;;;;;;;;;;;32.34;49.36;100921.63;4980136;27;70102;-40
2022/02/28 06:04:23;;;;;;;;;;;;;;;32.36;49.21;100916.81;4979011;28;66033;-39
2022/02/28 06:06:53;;;;;;;;;;;;;;;32.38;49.36;100903.84;4959928;28;69757;-40
2022/02/28 06:09:23;;;;;;;;;;;;;;;32.39;49.71;100905.50;4972128;28;67216;-40
2022/02/28 06:11:53;;;;;;;;;;;;;;;32.40;49.37;100898.19;4978224;28;70115;-39
2022/02/28 06:14:23;;;;;;;;;;;;;;;32.41;49.77;100903.38;4978817;28;65491;-40
2022/02/28 06:16:53;;;;;;;;;;;;;;;32.42;49.36;100894.19;4980525;27;70401;-40
2022/02/28 06:19:24;;;;;;;;;;;;;;;32.44;49.15;100881.22;4963221;28;65601;-39
2022/02/28 06:21:53;;;;;;;;;;;;;;;32.45;49.29;100872.00;4981684;28;70066;-40
2022/02/28 06:24:24;;;;;;;;;;;;;;;32.46;49.06;100876.41;4988043;28;65637;-40
2022/02/28 06:26:54;;;;;;;;;;;;;;;32.49;49.16;100873.22;4975905;28;70373;-40
2022/02/28 06:29:24;;;;;;;;;;;;;;;32.51;49.09;100870.25;4968955;28;66538;-41
2022/02/28 06:31:54;;;;;;;;;;;;;;;32.53;49.19;100867.34;4978409;28;69476;-40
2022/02/28 06:34:24;;;;;;;;;;;;;;;32.56;49.18;100867.69;4978477;28;66764;-39
2022/02/28 06:36:53;;;;;;;;;;;;;;;32.60;49.05;100854.50;4978359;28;69663;-40
2022/02/28 06:39:26;;;;;;;;;;;;;;;32.61;48.87;100843.38;4971485;28;67917;-40
2022/02/28 06:41:56;;;;;;;;;;;;;;;32.65;48.82;100838.31;4981934;28;69989;-40
2022/02/28 06:44:26;;;;;;;;;;;;;;;32.67;48.87;100828.84;4978217;28;66418;-40
2022/02/28 06:46:57;;;;;;;;;;;;;;;32.70;48.83;100824.84;4977840;28;70195;-39
2022/02/28 06:49:26;;;;;;;;;;;;;;;32.72;48.84;100820.03;5000999;28;66844;-40
2022/02/28 06:51:57;;;;;;;;;;;;;;;32.74;48.44;100817.91;4988096;28;70259;-40
2022/02/28 06:54:30;;;;;;;;;;;;;;;32.77;48.43;100808.47;4979277;28;65858;-40
2022/02/28 06:57:00;;;;;;;;;;;;;;;32.78;48.40;100802.78;4961336;28;69654;-39
2022/02/28 06:59:31;;;;;;;;;;;;;;;32.81;48.53;100798.75;4982868;28;65511;-40
2022/02/28 07:02:01;;;;;;;;;;;;;;;32.83;48.60;100797.47;5037958;28;69568;-40
2022/02/28 07:04:47;;;;;;;;;;;;;;;32.85;48.47;100787.19;4978174;28;66339;-41
2022/02/28 07:07:17;;;;;;;;;;;;;;;32.86;48.49;100780.69;4980285;28;69101;-39
2022/02/28 07:09:47;;;;;;;;;;;;;;;32.88;48.64;100788.63;4990608;28;65372;-40
2022/02/28 07:12:17;;;;;;;;;;;;;;;32.88;48.48;100778.56;4977617;28;69445;-39
2022/02/28 07:14:47;;;;;;;;;;;;;;;32.91;48.50;100766.41;4980412;28;65618;-39
2022/02/28 07:17:17;;;;;;;;;;;;;;;32.92;48.39;100768.88;4980191;28;70336;-40
2022/02/28 07:19:47;;;;;;;;;;;;;;;32.74;48.62;100733.69;4978409;28;66474;-39
2022/02/28 07:22:17;;;;;;;;;;;;;;;32.94;48.50;100755.88;4979853;28;69982;-39
2022/02/28 07:24:46;;;;;;;;;;;;;;;32.96;48.30;100749.38;4979128;28;65551;-40
2022/02/28 07:27:16;;;;;;;;;;;;;;;32.99;48.48;100746.19;4979886;28;70230;-40
2022/02/28 07:29:46;;;;;;;;;;;;;;;33.00;48.22;100747.88;4978764;28;67090;-39
2022/02/28 07:32:15;;;;;;;;;;;;;;;33.00;48.25;100734.31;4980964;28;69196;-40
2022/02/28 07:34:45;;;;;;;;;;;;;;;33.02;48.28;100741.16;4976931;27;65787;-39
2022/02/28 07:37:15;;;;;;;;;;;;;;;33.05;48.13;100737.13;4980739;27;70801;-40
2022/02/28 07:39:45;;;;;;;;;;;;;;;33.06;47.97;100733.34;4973766;28;66607;-39
2022/02/28 07:42:19;;;;;;;;;;;;;;;33.07;48.01;100732.25;4975771;28;69845;-39
2022/02/28 07:44:49;;;;;;;;;;;;;;;33.08;48.09;100723.06;4981012;27;65098;-40
2022/02/28 07:47:19;;;;;;;;;;;;;;;33.09;48.18;100719.28;4980503;28;69749;-39
2022/02/28 07:49:49;;;;;;;;;;;;;;;33.11;48.28;100722.59;4977261;28;65886;-39
2022/02/28 07:52:20;;;;;;;;;;;;;;;33.12;48.00;100718.78;4980432;28;70461;-39
2022/02/28 07:54:50;;;;;;;;;;;;;;;33.13;48.19;100715.03;4983726;28;66466;-39
2022/02/28 07:57:21;;;;;;;;;;;;;;;33.16;48.09;100719.97;4983840;27;70344;-39
2022/02/28 07:59:50;;;;;;;;;;;;;;;33.17;47.92;100718.91;4976164;28;66757;-40
2022/02/28 08:02:21;;;;;;;;;;;;;;;33.19;48.19;100722.22;4967887;28;70538;-40
2022/02/28 08:04:51;;;;;;;;;;;;;;;33.22;47.92;100712.75;4956913;28;66374;-40
2022/02/28 08:07:20;;;;;;;;;;;;;;;33.23;48.06;100715.22;4956862;28;70192;-40
2022/02/28 08:09:50;;;;;;;;;;;;;;;33.25;47.98;100702.22;4959680;28;66813;-40
2022/02/28 08:12:20;;;;;;;;;;;;;;;33.29;48.13;100703.41;4967741;28;70777;-40
2022/02/28 08:14:50;;;;;;;;;;;;;;;33.31;47.83;100698.53;4975592;28;65503;-40
2022/02/28 08:17:20;;;;;;;;;;;;;;;33.34;47.94;100706.19;4985163;28;70395;-40
2022/02/28 08:19:55;;;;;;;;;;;;;;;33.38;47.83;100701.13;4966712;28;65903;-39
2022/02/28 08:22:24;;;;;;;;;;;;;;;33.42;47.87;100696.03;4976056;28;69989;-40
2022/02/28 08:24:55;;;;;;;;;;;;;;;33.46;47.94;100705.31;4991509;28;65446;-39
2022/02/28 08:27:26;;;;;;;;;;;;;;;33.48;47.95;100701.31;4965730;28;71489;-39
2022/02/28 08:29:56;;;;;;;;;;;;;;;33.53;47.67;100708.78;4978002;28;65491;-39
2022/02/28 08:32:26;;;;;;;;;;;;;;;33.56;47.86;100708.28;4977144;28;69476;-39
2022/02/28 08:34:56;;;;;;;;;;;;;;;33.58;47.69;100698.81;4980002;28;66425;-40
2022/02/28 08:37:25;;;;;;;;;;;;;;;33.61;47.93;100700.22;4983900;28;70226;-40
2022/02/28 08:39:55;;;;;;;;;;;;;;;33.65;47.80;100695.13;4972243;28;67033;-39
2022/02/28 08:42:25;;;;;;;;;;;;;;;33.68;47.71;100694.63;4982915;28;70367;-40
2022/02/28 08:44:54;;;;;;;;;;;;;;;33.70;47.73;100701.47;4981064;28;66607;-40
2022/02/28 08:47:24;;;;;;;;;;;;;;;33.72;47.59;100696.63;4985026;28;69227;-40
2022/02/28 08:49:54;;;;;;;;;;;;;;;33.76;47.56;100699.69;4981280;28;66167;-40
2022/02/28 08:52:24;;;;;;;;;;;;;;;33.78;47.48;100706.53;4982733;27;70815;-40
2022/02/28 08:54:54;;;;;;;;;;;;;;;33.81;47.72;100697.06;4982241;28;67066;-40
2022/02/28 08:57:24;;;;;;;;;;;;;;;33.83;47.64;100702.25;4984524;27;70290;-40
2022/02/28 08:59:53;;;;;;;;;;;;;;;33.85;47.69;100697.38;4977317;28;66518;-39
2022/02/28 09:02:23;;;;;;;;;;;;;;;33.88;47.66;100707.78;4976939;28;70560;-40
2022/02/28 09:04:53;;;;;;;;;;;;;;;33.89;47.60;100704.00;4976971;27;66707;-39
2022/02/28 09:07:24;;;;;;;;;;;;;;;33.91;47.42;100710.03;4977180;28;69401;-40
2022/02/28 09:09:54;;;;;;;;;;;;;;;33.83;47.55;100692.19;4980584;27;66370;-40
2022/02/28 09:12:26;;;;;;;;;;;;;;;33.94;47.76;100704.09;4978080;28;69693;-41
2022/02/28 09:14:56;;;;;;;;;;;;;;;33.95;47.62;100705.72;4981437;27;66547;-40
2022/02/28 09:17:30;;;;;;;;;;;;;;;33.97;47.77;100709.03;4975549;28;70293;-39
2022/02/28 09:20:01;;;;;;;;;;;;;;;33.98;47.76;100710.69;4977698;28;66264;-40
2022/02/28 09:22:31;;;;;;;;;;;;;;;33.98;47.99;100705.25;4976844;27;69283;-40
2022/02/28 09:25:01;;;;;;;;;;;;;;;33.99;47.97;100709.59;4977128;27;66413;-41
2022/02/28 09:27:31;;;;;;;;;;;;;;;33.99;47.84;100712.31;4970018;28;70457;-39
2022/02/28 09:30:16;;;;;;;;;;;;;;;34.00;47.80;100714.00;4981136;28;65541;-40
2022/02/28 09:32:52;;;;;;;;;;;;;;;34.00;47.86;100714.00;4980847;28;70053;-40
2022/02/28 09:35:22;;;;;;;;;;;;;;;34.02;47.91;100717.31;4984852;27;66361;-40
2022/02/28 09:37:52;;;;;;;;;;;;;;;34.00;47.70;100705.81;4981339;28;69939;-40
2022/02/28 09:40:25;;;;;;;;;;;;;;;34.02;48.01;100715.41;4972891;28;66800;-40
2022/02/28 09:43:14;;;;;;;;;;;;;;;34.01;47.91;100721.06;4971662;28;70342;-40
2022/02/28 09:46:04;;;;;;;;;;;;;;;34.01;48.08;100713.72;4983476;28;66805;-40
2022/02/28 09:49:12;;;;;;;;;;;;;;;34.02;48.03;100726.28;4981465;28;69967;-40
2022/02/28 09:52:02;;;;;;;;;;;;;;;34.02;48.04;100728.19;4979861;28;66628;-40
2022/02/28 09:55:05;;;;;;;;;;;;;;;34.02;47.94;100739.06;4975330;27;70255;-41
2022/02/28 09:57:48;;;;;;;;;;;;;;;34.00;48.10;100735.75;4980797;28;65380;-40
2022/02/28 10:00:41;;;;;;;;;;;;;;;34.00;48.21;100743.94;4980478;27;68658;-39
2022/02/28 10:03:11;;;;;;;;;;;;;;;33.98;48.20;100743.34;4978218;28;65788;-40
2022/02/28 10:05:41;;;;;;;;;;;;;;;33.97;48.28;100741.69;4959844;28;70148;-39
2022/02/28 10:08:14;;;;;;;;;;;;;;;33.96;48.32;100740.03;4981497;27;68414;-39
2022/02/28 10:10:47;;;;;;;;;;;;;;;33.93;48.43;100741.34;5030490;27;69211;-40
2022/02/28 10:13:28;;;;;;;;;;;;;;;33.93;48.31;100745.97;4960317;28;66184;-41
2022/02/28 10:16:02;;;;;;;;;;;;;;;33.91;48.34;100753.56;4971714;28;70126;-40
2022/02/28 10:18:32;;;;;;;;;;;;;;;33.88;48.50;100759.47;4977116;28;66417;-40
2022/02/28 10:21:01;;;;;;;;;;;;;;;33.89;48.35;100755.69;4978722;28;70095;-39
2022/02/28 10:23:32;;;;;;;;;;;;;;;33.88;48.63;100748.59;4978226;28;66609;-40
2022/02/28 10:26:48;;;;;;;;;;;;;;;33.85;48.72;100754.53;4987344;28;63866;-43
2022/02/28 10:29:50;;;;;;;;;;;;;;;33.83;48.88;100762.94;4943482;28;65474;-41
2022/02/28 10:32:48;;;;;;;;;;;;;;;33.81;48.79;100765.88;4963422;28;70304;-39
2022/02/28 10:38:46;;;;;;;;;;;;;;;33.75;48.95;100772.31;4973670;28;69641;-40
2022/02/28 10:41:18;;;;;;;;;;;;;;;33.74;48.99;100764.38;4975573;28;66244;-41
2022/02/28 10:43:52;;;;;;;;;;;;;;;33.73;48.95;100769.00;4977660;28;69913;-39
2022/02/28 10:46:23;;;;;;;;;;;;;;;33.72;49.09;100778.25;4973953;28;66295;-41
2022/02/28 10:48:55;;;;;;;;;;;;;;;33.70;49.34;100782.25;4976214;28;70084;-41
2022/02/28 10:51:28;;;;;;;;;;;;;;;33.67;49.81;100786.28;4972841;28;66391;-40
2022/02/28 10:54:13;;;;;;;;;;;;;;;33.68;49.79;100792.56;4976149;28;70819;-40
2022/02/28 10:56:43;;;;;;;;;;;;;;;33.65;49.93;100791.13;4979540;28;66222;-40
2022/02/28 10:59:14;;;;;;;;;;;;;;;33.64;50.36;100803.09;4975766;28;69331;-42
2022/02/28 11:01:43;;;;;;;;;;;;;;;33.64;50.53;100797.66;4982899;28;65657;-40
2022/02/28 11:04:13;;;;;;;;;;;;;;;33.63;50.58;100796.03;4974541;28;70078;-39
2022/02/28 11:06:46;;;;;;;;;;;;;;;33.61;50.65;100802.78;4976983;28;65527;-40
2022/02/28 11:09:28;;;;;;;;;;;;;;;33.59;50.97;100811.16;4967506;28;70353;-41
2022/02/28 11:12:16;;;;;;;;;;;;;;;33.57;50.98;100816.00;4959236;27;66334;-39
2022/02/28 11:14:47;;;;;;;;;;;;;;;33.54;51.30;100813.75;4986380;27;70466;-40
2022/02/28 11:17:18;;;;;;;;;;;;;;;33.53;51.22;100820.28;4970353;28;65760;-39
2022/02/28 11:19:50;;;;;;;;;;;;;;;33.51;51.26;100825.09;4978545;28;69077;-39
2022/02/28 11:22:20;;;;;;;;;;;;;;;33.50;51.38;100818.00;4969410;28;66383;-39
2022/02/28 11:24:53;;;;;;;;;;;;;;;33.49;51.49;100821.78;4978376;28;69882;-39
2022/02/28 11:27:25;;;;;;;;;;;;;;;33.48;51.60;100828.28;4970914;28;67096;-40
2022/02/28 11:30:06;;;;;;;;;;;;;;;33.49;51.67;100829.94;4977812;27;70612;-39
2022/02/28 11:32:37;;;;;;;;;;;;;;;33.47;51.91;100824.75;4976081;28;66822;-40
2022/02/28 11:35:25;;;;;;;;;;;;;;;33.47;51.60;100826.66;4973451;28;70342;-40
2022/02/28 11:37:55;;;;;;;;;;;;;;;33.46;51.85;100833.13;4973391;28;67104;-39
2022/02/28 11:40:29;;;;;;;;;;;;;;;33.42;52.06;100827.34;4978826;28;70403;-40
2022/02/28 11:43:02;;;;;;;;;;;;;;;33.39;51.79;100833.28;4976744;28;66894;-40
2022/02/28 11:45:33;;;;;;;;;;;;;;;33.37;51.85;100841.66;4977470;28;69687;-40
2022/02/28 11:48:10;;;;;;;;;;;;;;;33.36;51.71;100840.00;4973583;28;65824;-40
2022/02/28 11:50:48;;;;;;;;;;;;;;;33.33;52.16;100843.22;4974467;28;70764;-40
2022/02/28 11:53:37;;;;;;;;;;;;;;;33.32;52.34;100844.28;4972855;28;65412;-42
2022/02/28 11:56:15;;;;;;;;;;;;;;;33.31;52.18;100844.50;4974862;28;68687;-39
2022/02/28 11:58:48;;;;;;;;;;;;;;;33.30;51.96;100845.59;4978015;27;66404;-40
2022/02/28 12:01:19;;;;;;;;;;;;;;;33.28;51.82;100843.09;4974221;28;69254;-40
2022/02/28 12:04:01;;;;;;;;;;;;;;;33.28;51.88;100855.88;4974200;28;66595;-40
2022/02/28 12:06:52;;;;;;;;;;;;;;;33.26;51.02;100858.00;4972344;28;68688;-36
2022/02/28 12:09:32;;;;;;;;;;;;;;;33.18;49.67;100864.59;4974053;28;65625;-37
2022/02/28 12:12:14;;;;;;;;;;;;;;;33.04;49.50;100858.59;4974228;28;69123;-36
2022/02/28 12:14:57;;;;;;;;;;;;;;;32.95;50.03;100873.53;4989994;27;67014;-38
2022/02/28 12:17:30;;;;;;;;;;;;;;;32.89;50.36;100872.59;4973256;28;70032;-37
2022/02/28 12:20:14;;;;;;;;;;;;;;;32.85;50.72;100876.84;4973529;28;66585;-38
2022/02/28 12:23:09;;;;;;;;;;;;;;;32.80;50.71;100879.44;4970997;28;69849;-38
2022/02/28 12:25:47;;;;;;;;;;;;;;;32.75;50.79;100875.78;4976359;28;66567;-37
2022/02/28 12:28:20;;;;;;;;;;;;;;;32.69;50.74;100877.53;4976230;28;69207;-39
2022/02/28 12:30:55;;;;;;;;;;;;;;;32.64;52.13;100883.66;4968780;28;66789;-40
2022/02/28 12:33:27;;;;;;;;;;;;;;;32.61;51.64;100886.00;4944089;28;69182;-39
2022/02/28 12:36:16;;;;;;;;;;;;;;;32.61;51.49;100886.00;4939095;28;66480;-40
2022/02/28 12:38:51;;;;;;;;;;;;;;;32.58;51.38;100891.91;4971488;28;70089;-37
2022/02/28 12:41:21;;;;;;;;;;;;;;;32.56;51.96;100894.03;4971645;28;67000;-38
2022/02/28 12:43:51;;;;;;;;;;;;;;;32.56;52.04;100904.88;4973419;28;70551;-37
2022/02/28 12:46:22;;;;;;;;;;;;;;;32.54;52.06;100901.56;4974727;28;65771;-37
2022/02/28 12:48:52;;;;;;;;;;;;;;;32.52;52.16;100906.41;4969572;28;69316;-39
2022/02/28 12:51:23;;;;;;;;;;;;;;;32.52;52.16;100914.56;4976201;27;66706;-37
2022/02/28 12:54:10;;;;;;;;;;;;;;;32.51;52.60;100907.47;4984048;28;69499;-37
2022/02/28 12:56:46;;;;;;;;;;;;;;;32.51;53.07;100913.72;4972952;28;65326;-38
2022/02/28 12:59:16;;;;;;;;;;;;;;;32.49;52.91;100922.09;4969746;28;68812;-37
2022/02/28 13:01:55;;;;;;;;;;;;;;;32.50;52.86;100922.94;4976323;28;66846;-38
2022/02/28 13:04:26;;;;;;;;;;;;;;;32.46;52.28;100919.84;4974671;28;70645;-38
2022/02/28 13:06:56;;;;;;;;;;;;;;;32.46;52.83;100932.59;4975978;28;66128;-37
2022/02/28 13:09:26;;;;;;;;;;;;;;;32.43;53.03;100939.28;4980098;28;69333;-38